Time,TemperatureF,DewpointF,PressureIn,WindDirection,WindDirectionDegrees,WindSpeedMPH,WindSpeedGustMPH,Humidity,HourlyPrecipIn,Conditions,Clouds,dailyrainin,SoftwareType,DateUTC
2013-05-05 01:02:00,68.0,36.0,-100.00,SE,125,5.0,7.0,30,-99.99,,,-99.99,,2013-05-05 08:02:00,
2013-05-05 01:11:00,68.0,36.0,-100.00,SE,125,5.0,7.0,30,-99.99,,,-99.99,,2013-05-05 08:11:00,
2013-05-05 03:02:00,67.0,36.0,-100.00,ESE,120,3.0,7.0,31,-99.99,,,-99.99,,2013-05-05 10:02:00,
2013-05-05 05:02:00,65.0,36.0,-100.00,South,180,1.0,2.0,34,-99.99,,,-99.99,,2013-05-05 12:02:00,
2013-05-05 07:01:00,64.0,37.0,-100.00,ESE,120,3.0,7.0,36,-99.99,,,-99.99,,2013-05-05 14:01:00,
2013-05-05 08:20:00,68.0,41.0,-100.00,SE,125,2.0,5.0,37,-99.99,,,-99.99,,2013-05-05 15:20:00,
2013-05-05 09:03:00,68.0,41.0,-100.00,SE,125,2.0,5.0,37,-99.99,,,-99.99,,2013-05-05 16:03:00,
2013-05-05 11:01:00,71.0,43.0,-100.00,South,190,1.0,7.0,36,-99.99,,,-99.99,,2013-05-05 18:01:00,
2013-05-05 11:11:00,71.0,43.0,-100.00,South,190,1.0,7.0,36,-99.99,,,-99.99,,2013-05-05 18:11:00,
2013-05-05 13:01:00,78.0,32.0,-100.00,East,95,7.0,15.0,18,-99.99,,,-99.99,,2013-05-05 20:01:00,
2013-05-05 15:02:00,82.0,36.0,-100.00,ESE,110,6.0,14.0,19,-99.99,,,-99.99,,2013-05-05 22:02:00,
2013-05-05 15:12:00,82.0,36.0,-100.00,ESE,110,6.0,14.0,19,-99.99,,,-99.99,,2013-05-05 22:12:00,
2013-05-05 16:20:00,83.0,37.0,-100.00,ESE,120,3.0,7.0,19,-99.99,,,-99.99,,2013-05-05 23:20:00,
2013-05-05 17:01:00,83.0,37.0,-100.00,ESE,120,3.0,7.0,19,-99.99,,,-99.99,,2013-05-06 00:01:00,
2013-05-05 17:11:00,83.0,37.0,-100.00,ESE,120,3.0,7.0,19,-99.99,,,-99.99,,2013-05-06 00:11:00,
2013-05-05 19:01:00,82.0,38.0,-100.00,NNW,345,1.0,7.0,20,-99.99,,,-99.99,,2013-05-06 02:01:00,
2013-05-05 19:12:00,82.0,38.0,-100.00,NNW,345,1.0,7.0,20,-99.99,,,-99.99,,2013-05-06 02:12:00,
2013-05-05 21:02:00,77.0,38.0,-100.00,ESE,110,2.0,8.0,24,-99.99,,,-99.99,,2013-05-06 04:02:00,
2013-05-05 21:12:00,77.0,38.0,-100.00,ESE,110,2.0,8.0,24,-99.99,,,-99.99,,2013-05-06 04:12:00,
2013-05-05 23:02:00,74.0,37.0,-100.00,SW,215,2.0,5.0,26,-99.99,,,-99.99,,2013-05-06 06:02:00,